Time;durP1;ratioP1;P1;durP2;ratioP2;P2;SDS_P1;SDS_P2;PMS_P1;PMS_P2;Temp;Humidity;BMP_temperature;BMP_pressure;BME280_temperature;BME280_humidity;BME280_pressure;Samples;Min_cycle;Max_cycle;Signal;HPM_P1;HPM_P2
2022/08/23 00:01:38;;;;;;;4.82;2.38;;;20.50;99.90;;;;;;4985481;28;20026;-62
2022/08/23 00:04:15;;;;;;;5.80;2.70;;;20.40;99.90;;;;;;5003354;28;20026;-62
2022/08/23 00:06:41;;;;;;;6.22;2.65;;;20.30;99.90;;;;;;4987508;28;20605;-62
2022/08/23 00:09:08;;;;;;;4.68;2.75;;;20.40;99.90;;;;;;4987330;28;20081;-62
2022/08/23 00:11:36;;;;;;;5.78;2.58;;;20.40;99.90;;;;;;4987975;28;20478;-62
2022/08/23 00:14:09;;;;;;;4.95;2.40;;;20.30;99.90;;;;;;4987190;28;20030;-62
2022/08/23 00:16:35;;;;;;;;;;;20.20;99.90;;;;;;4985822;28;20026;-62
2022/08/23 00:19:03;;;;;;;6.35;2.60;;;20.10;99.90;;;;;;5002538;28;20383;-62
2022/08/23 00:21:28;;;;;;;6.05;2.72;;;20.00;99.90;;;;;;4989660;28;20026;-62
2022/08/23 00:23:54;;;;;;;5.68;2.92;;;19.90;99.90;;;;;;4989056;28;20045;-62
2022/08/23 00:26:21;;;;;;;4.85;2.70;;;20.00;99.90;;;;;;4985495;28;20040;-62
2022/08/23 00:28:48;;;;;;;6.25;2.50;;;19.80;99.90;;;;;;4985245;28;20102;-62
2022/08/23 00:31:14;;;;;;;7.85;2.90;;;19.90;99.90;;;;;;4986694;28;20034;-62
2022/08/23 00:33:43;;;;;;;5.82;2.80;;;19.80;99.90;;;;;;4987945;28;20033;-62
2022/08/23 00:36:08;;;;;;;9.68;2.80;;;19.70;99.90;;;;;;4987187;28;20561;-62
2022/08/23 00:38:34;;;;;;;6.05;2.90;;;19.70;99.90;;;;;;4989744;28;20169;-62
2022/08/23 00:41:00;;;;;;;7.63;2.88;;;19.70;99.90;;;;;;4983646;28;20479;-62
2022/08/23 00:49:24;;;;;;;7.07;2.80;;;19.40;99.90;;;;;;4984448;28;20517;-62
2022/08/23 00:52:01;;;;;;;7.20;3.22;;;19.40;99.90;;;;;;4982731;28;20038;-62
2022/08/23 00:54:28;;;;;;;6.50;2.97;;;19.30;99.90;;;;;;4979164;28;20023;-62
2022/08/23 00:56:57;;;;;;;5.78;3.05;;;19.30;99.90;;;;;;4985314;28;20137;-62
2022/08/23 00:59:23;;;;;;;5.22;2.83;;;19.40;99.90;;;;;;4986905;28;20045;-61
2022/08/23 01:01:49;;;;;;;5.75;3.10;;;19.20;99.90;;;;;;4988674;28;20033;-62
2022/08/23 01:04:16;;;;;;;7.88;3.10;;;19.20;99.90;;;;;;4982836;28;20026;-62
2022/08/23 01:07:00;;;;;;;8.98;3.22;;;19.10;99.90;;;;;;4991068;28;20054;-62
2022/08/23 01:09:26;;;;;;;5.13;3.05;;;19.20;99.90;;;;;;4986814;28;20153;-62
2022/08/23 01:12:15;;;;;;;7.70;2.88;;;19.20;99.90;;;;;;4981999;28;20121;-62
2022/08/23 01:14:50;;;;;;;7.82;3.25;;;19.20;99.90;;;;;;4983931;28;20030;-62
2022/08/23 01:17:24;;;;;;;5.10;2.80;;;19.20;99.90;;;;;;4984254;28;20037;-61
2022/08/23 01:19:54;;;;;;;6.25;3.00;;;19.20;99.90;;;;;;4985012;28;20042;-61
2022/08/23 01:22:33;;;;;;;6.03;2.90;;;19.20;99.90;;;;;;4987556;28;20029;-61
2022/08/23 01:25:00;;;;;;;9.13;3.53;;;19.00;99.90;;;;;;4978560;28;20101;-62
2022/08/23 01:27:26;;;;;;;6.47;3.17;;;19.00;99.90;;;;;;4983660;28;20022;-61
2022/08/23 01:29:52;;;;;;;5.72;2.90;;;19.00;99.90;;;;;;4985900;28;20057;-62
2022/08/23 01:32:18;;;;;;;7.35;2.92;;;19.10;99.90;;;;;;4985855;28;20362;-61
2022/08/23 01:34:45;;;;;;;5.75;2.70;;;19.00;99.90;;;;;;4984676;28;20092;-61
2022/08/23 01:37:11;;;;;;;6.97;3.25;;;18.90;99.90;;;;;;4986034;28;20041;-61
2022/08/23 01:39:37;;;;;;;5.78;3.08;;;18.90;99.90;;;;;;4985099;28;20018;-62
2022/08/23 01:42:03;;;;;;;7.55;3.38;;;18.70;99.90;;;;;;4982559;28;20657;-62
2022/08/23 01:44:29;;;;;;;5.63;2.95;;;18.80;99.90;;;;;;4983794;28;20026;-61
2022/08/23 01:46:54;;;;;;;5.53;2.85;;;18.70;99.90;;;;;;4987903;28;20023;-61
2022/08/23 01:49:20;;;;;;;5.65;3.33;;;18.80;99.90;;;;;;4985637;28;20026;-61
2022/08/23 01:51:46;;;;;;;6.75;3.00;;;18.80;99.90;;;;;;4974565;28;20037;-61
2022/08/23 01:54:12;;;;;;;7.72;3.13;;;18.80;99.90;;;;;;4980050;28;20026;-61
2022/08/23 01:56:40;;;;;;;5.68;3.58;;;18.60;99.90;;;;;;4983513;28;20508;-62
2022/08/23 01:59:11;;;;;;;5.90;3.15;;;18.60;99.90;;;;;;4982423;28;20458;-61
2022/08/23 02:01:37;;;;;;;7.22;3.30;;;18.50;99.90;;;;;;4983899;28;20684;-62
2022/08/23 02:04:03;;;;;;;8.35;3.28;;;18.40;99.90;;;;;;4982323;28;20101;-61
2022/08/23 02:06:29;;;;;;;5.40;3.10;;;18.50;99.90;;;;;;4984261;28;20080;-62
2022/08/23 02:09:01;;;;;;;7.28;3.20;;;18.30;99.90;;;;;;4982775;28;20109;-61
2022/08/23 02:11:29;;;;;;;6.25;3.15;;;18.40;99.90;;;;;;4983098;28;20088;-61
2022/08/23 02:13:57;;;;;;;6.00;3.15;;;18.40;99.90;;;;;;4984749;28;20482;-61
2022/08/23 02:16:33;;;;;;;6.93;3.17;;;18.40;99.90;;;;;;4983935;28;20070;-62
2022/08/23 02:19:01;;;;;;;8.10;3.60;;;18.40;99.90;;;;;;4986890;28;20022;-62
2022/08/23 02:21:30;;;;;;;6.55;3.47;;;18.40;99.90;;;;;;4978110;28;20050;-61
2022/08/23 02:24:03;;;;;;;9.02;3.50;;;18.40;99.90;;;;;;4984885;28;20684;-61
2022/08/23 02:26:28;;;;;;;5.80;2.97;;;18.30;99.90;;;;;;4981569;28;20371;-61
2022/08/23 02:28:54;;;;;;;7.20;3.22;;;18.40;99.90;;;;;;4983440;28;20065;-61
2022/08/23 02:31:20;;;;;;;5.25;3.20;;;18.00;99.90;;;;;;4982174;28;20083;-61
2022/08/23 02:33:47;;;;;;;9.10;3.47;;;17.90;99.90;;;;;;4984783;28;20419;-62
2022/08/23 02:36:13;;;;;;;5.53;3.30;;;17.90;99.90;;;;;;4984850;28;20041;-61
2022/08/23 02:38:38;;;;;;;6.05;3.60;;;17.90;99.90;;;;;;4985687;28;20676;-62
2022/08/23 02:41:04;;;;;;;6.40;3.80;;;18.00;99.90;;;;;;4983466;28;20113;-62
2022/08/23 02:43:30;;;;;;;6.53;3.60;;;17.70;99.90;;;;;;4984591;28;20394;-61
2022/08/23 02:45:56;;;;;;;6.38;3.65;;;17.10;99.90;;;;;;4997058;28;21445;-61
2022/08/23 02:48:21;;;;;;;7.65;3.88;;;17.80;99.90;;;;;;4978486;28;20026;-61
2022/08/23 02:50:48;;;;;;;5.60;3.60;;;17.80;99.90;;;;;;4982269;28;20029;-61
2022/08/23 02:53:15;;;;;;;7.60;3.40;;;17.90;99.90;;;;;;4974332;28;20056;-61
2022/08/23 02:55:44;;;;;;;6.53;3.67;;;17.70;99.90;;;;;;4979691;28;20034;-61
2022/08/23 02:58:10;;;;;;;8.93;3.50;;;17.80;99.90;;;;;;4981117;28;20432;-61
2022/08/23 03:00:37;;;;;;;5.97;3.45;;;17.90;99.90;;;;;;4981441;28;20045;-62
2022/08/23 03:03:03;;;;;;;5.05;3.40;;;17.90;99.90;;;;;;4981601;28;20102;-62
2022/08/23 03:05:30;;;;;;;6.57;3.33;;;17.90;99.90;;;;;;4977055;28;20050;-61
2022/08/23 03:07:56;;;;;;;6.35;3.90;;;17.90;99.90;;;;;;4980121;28;20030;-61
2022/08/23 03:10:21;;;;;;;7.50;3.67;;;17.90;99.90;;;;;;4979751;28;20038;-61
2022/08/23 03:12:47;;;;;;;7.07;3.60;;;17.90;99.90;;;;;;4981751;28;20444;-61
2022/08/23 03:15:13;;;;;;;7.40;3.67;;;17.80;99.90;;;;;;4982552;28;20037;-61
2022/08/23 03:17:38;;;;;;;5.50;3.40;;;17.90;99.90;;;;;;4986268;28;20378;-61
2022/08/23 03:20:05;;;;;;;5.47;3.83;;;17.90;99.90;;;;;;4986217;28;20065;-61
2022/08/23 03:22:31;;;;;;;9.38;3.90;;;17.80;99.90;;;;;;4989620;28;20026;-61
2022/08/23 03:24:56;;;;;;;8.38;3.85;;;17.80;99.90;;;;;;4984736;28;20535;-61
2022/08/23 03:27:22;;;;;;;6.55;4.22;;;17.80;99.90;;;;;;4989164;28;20026;-61
2022/08/23 03:29:48;;;;;;;9.73;4.18;;;17.70;99.90;;;;;;4985134;28;20038;-62
2022/08/23 03:32:13;;;;;;;5.57;3.50;;;17.60;99.90;;;;;;4985099;28;20058;-61
2022/08/23 03:34:39;;;;;;;8.98;3.63;;;17.70;99.90;;;;;;4987216;28;20109;-61
2022/08/23 03:37:05;;;;;;;6.40;4.13;;;17.70;99.90;;;;;;4989014;28;20065;-62
2022/08/23 03:39:30;;;;;;;6.38;3.88;;;17.70;99.90;;;;;;4987434;28;20077;-61
2022/08/23 03:41:56;;;;;;;7.80;3.92;;;17.60;99.90;;;;;;4985376;28;20046;-61
2022/08/23 03:44:22;;;;;;;8.18;4.20;;;17.70;99.90;;;;;;4985191;28;20417;-61
2022/08/23 03:46:47;;;;;;;9.80;4.43;;;17.60;99.90;;;;;;4985455;28;20041;-61
2022/08/23 03:49:13;;;;;;;6.03;4.45;;;17.60;99.90;;;;;;4986821;28;20037;-61
2022/08/23 03:51:38;;;;;;;8.93;4.38;;;17.60;99.90;;;;;;4981833;28;20035;-61
2022/08/23 03:54:04;;;;;;;7.20;4.18;;;17.60;99.90;;;;;;4989922;28;20073;-61
2022/08/23 03:56:38;;;;;;;8.48;4.47;;;17.50;99.90;;;;;;4983661;28;20031;-61
2022/08/23 03:59:10;;;;;;;8.13;4.20;;;17.40;99.90;;;;;;4985443;28;20034;-61
2022/08/23 04:01:36;;;;;;;8.43;4.32;;;17.30;99.90;;;;;;4989274;28;20046;-61
2022/08/23 04:04:02;;;;;;;8.23;4.65;;;17.50;99.90;;;;;;4985199;28;20030;-61
2022/08/23 04:06:28;;;;;;;7.43;4.20;;;17.50;99.90;;;;;;4984336;28;20038;-61
2022/08/23 04:08:55;;;;;;;6.22;4.32;;;17.40;99.90;;;;;;4984353;28;20096;-61
2022/08/23 04:11:22;;;;;;;8.82;4.82;;;17.40;99.90;;;;;;4981176;28;20034;-61
2022/08/23 04:13:47;;;;;;;8.50;4.88;;;17.30;99.90;;;;;;4986292;28;20034;-61
2022/08/23 04:16:13;;;;;;;8.60;4.45;;;17.30;99.90;;;;;;5000903;28;20249;-61
2022/08/23 04:18:39;;;;;;;9.50;4.13;;;17.40;99.90;;;;;;4983434;28;20030;-61
2022/08/23 04:21:11;;;;;;;7.63;4.38;;;17.30;99.90;;;;;;4985074;28;20498;-61
2022/08/23 04:23:38;;;;;;;7.65;4.18;;;17.40;99.90;;;;;;4984530;28;20029;-61
2022/08/23 04:26:05;;;;;;;6.65;4.10;;;17.40;99.90;;;;;;4985924;28;20031;-61
2022/08/23 04:28:31;;;;;;;7.35;3.95;;;17.40;99.90;;;;;;4985384;28;20026;-61
2022/08/23 04:30:59;;;;;;;8.13;4.03;;;17.30;99.90;;;;;;4983792;28;20486;-61
2022/08/23 04:33:30;;;;;;;6.28;4.22;;;17.20;99.90;;;;;;4985223;28;20137;-61
2022/08/23 04:35:56;;;;;;;5.82;4.30;;;17.10;99.90;;;;;;4987147;28;20236;-62
2022/08/23 04:38:22;;;;;;;6.85;4.30;;;17.20;99.90;;;;;;4985437;28;20053;-61
2022/08/23 04:43:32;;;;;;;7.40;4.57;;;17.20;99.90;;;;;;4985060;28;20037;-61
2022/08/23 04:45:57;;;;;;;8.10;5.30;;;17.20;99.90;;;;;;4985960;28;20030;-61
2022/08/23 04:48:24;;;;;;;8.23;4.80;;;17.20;99.90;;;;;;4983608;28;20137;-61
2022/08/23 04:50:50;;;;;;;8.38;4.68;;;17.20;99.90;;;;;;4981527;28;20102;-62
2022/08/23 04:53:16;;;;;;;9.25;5.10;;;17.20;99.90;;;;;;4983753;28;20033;-62
2022/08/23 04:55:41;;;;;;;6.97;5.05;;;17.20;99.90;;;;;;4981570;28;20442;-62
2022/08/23 04:58:07;;;;;;;11.52;5.63;;;17.20;99.90;;;;;;4980126;28;20031;-62
2022/08/23 05:00:33;;;;;;;7.15;5.65;;;17.20;99.90;;;;;;4984941;28;20386;-62
2022/08/23 05:02:59;;;;;;;9.68;5.78;;;17.30;99.90;;;;;;4981093;28;20371;-62
2022/08/23 05:05:26;;;;;;;8.95;5.68;;;17.30;99.90;;;;;;4983891;28;20110;-62
2022/08/23 05:07:53;;;;;;;11.65;5.97;;;17.30;99.90;;;;;;4986499;28;20093;-62
2022/08/23 05:10:19;;;;;;;11.85;6.13;;;17.30;99.90;;;;;;4984432;28;20082;-62
2022/08/23 05:12:45;;;;;;;10.98;6.05;;;17.30;99.90;;;;;;4983346;28;20105;-62
2022/08/23 05:15:11;;;;;;;10.05;5.90;;;17.30;99.90;;;;;;4985298;28;20122;-62
2022/08/23 05:17:37;;;;;;;18.58;14.77;;;17.40;99.90;;;;;;4984004;28;20725;-62
2022/08/23 05:20:05;;;;;;;44.90;34.75;;;17.40;99.90;;;;;;4984552;28;20474;-61
2022/08/23 05:22:35;;;;;;;29.73;22.83;;;17.50;99.90;;;;;;4983563;28;20022;-61
2022/08/23 05:25:00;;;;;;;18.10;13.45;;;17.50;99.90;;;;;;4981907;28;20489;-61
2022/08/23 05:27:26;;;;;;;15.60;10.02;;;17.50;99.90;;;;;;4983202;28;20054;-61
2022/08/23 05:29:54;;;;;;;12.27;7.95;;;17.50;99.90;;;;;;4991908;28;20514;-61
2022/08/23 05:32:20;;;;;;;13.50;8.23;;;17.50;99.90;;;;;;4984099;28;20034;-61
2022/08/23 05:34:46;;;;;;;13.40;7.88;;;17.60;99.90;;;;;;4984393;28;20020;-61
2022/08/23 05:37:12;;;;;;;13.63;7.45;;;17.70;99.90;;;;;;4986480;28;20030;-61
2022/08/23 05:39:38;;;;;;;10.80;7.13;;;17.70;99.90;;;;;;4985430;28;20369;-61
2022/08/23 05:42:06;;;;;;;13.60;7.50;;;17.70;99.90;;;;;;4985162;28;20038;-61
2022/08/23 05:44:32;;;;;;;9.40;7.15;;;17.80;99.90;;;;;;4985954;28;20037;-61
2022/08/23 05:46:57;;;;;;;13.02;7.95;;;17.90;99.90;;;;;;4981988;28;20030;-61
2022/08/23 05:49:23;;;;;;;12.77;7.93;;;18.00;99.90;;;;;;4980921;28;20065;-61
2022/08/23 05:51:48;;;;;;;12.30;7.57;;;18.10;99.90;;;;;;4984809;28;20031;-61
2022/08/23 05:54:14;;;;;;;13.82;7.68;;;18.10;99.90;;;;;;4982468;28;20422;-61
2022/08/23 05:56:42;;;;;;;12.10;7.68;;;18.10;99.90;;;;;;4979843;28;20444;-61
2022/08/23 05:59:11;;;;;;;17.17;8.73;;;18.20;99.90;;;;;;4982888;28;20490;-61
2022/08/23 06:01:38;;;;;;;14.73;8.60;;;18.30;99.90;;;;;;4983887;28;20696;-61
2022/08/23 06:04:08;;;;;;;12.02;8.10;;;18.40;99.90;;;;;;4983905;28;20105;-61
2022/08/23 06:06:34;;;;;;;15.77;8.07;;;18.50;99.90;;;;;;4967859;28;20029;-61
2022/08/23 06:09:01;;;;;;;17.20;7.75;;;18.50;99.90;;;;;;4983991;28;20354;-61
2022/08/23 06:11:28;;;;;;;13.02;7.13;;;18.70;99.90;;;;;;4977629;28;20034;-61
2022/08/23 06:13:58;;;;;;;13.30;8.25;;;18.80;99.90;;;;;;4986179;28;20061;-61
2022/08/23 06:16:27;;;;;;;12.38;7.63;;;18.80;99.90;;;;;;4983591;28;20042;-61
2022/08/23 06:18:54;;;;;;;16.20;8.00;;;19.00;99.90;;;;;;4982794;28;20034;-61
2022/08/23 06:21:21;;;;;;;13.75;7.95;;;19.10;99.90;;;;;;4985286;28;20050;-61
2022/08/23 06:23:48;;;;;;;15.05;7.70;;;19.20;99.90;;;;;;4982102;28;20127;-61
2022/08/23 06:26:18;;;;;;;17.00;7.57;;;19.40;99.90;;;;;;4984446;28;20370;-61
2022/08/23 06:28:46;;;;;;;14.07;7.78;;;19.60;99.90;;;;;;4987245;28;20025;-61
2022/08/23 06:31:11;;;;;;;16.20;7.78;;;19.70;99.90;;;;;;4985241;28;20492;-62
2022/08/23 06:33:41;;;;;;;11.52;7.10;;;19.80;99.90;;;;;;4982807;28;20033;-61
2022/08/23 06:36:09;;;;;;;18.13;7.93;;;19.90;99.90;;;;;;4984888;28;20023;-61
2022/08/23 06:38:35;;;;;;;15.57;7.75;;;19.80;99.90;;;;;;4987554;28;20031;-61
2022/08/23 06:41:07;;;;;;;12.55;7.07;;;19.80;99.90;;;;;;4982679;28;20096;-61
2022/08/23 06:43:33;;;;;;;13.45;6.82;;;19.90;99.90;;;;;;4981764;28;20025;-62
2022/08/23 06:46:06;;;;;;;15.32;7.32;;;20.10;99.90;;;;;;4984100;28;20401;-62
2022/08/23 06:48:32;;;;;;;12.65;6.35;;;20.10;99.90;;;;;;4983695;28;20045;-61
2022/08/23 06:50:58;;;;;;;17.38;6.90;;;20.20;99.90;;;;;;4982194;28;20506;-62
2022/08/23 06:53:24;;;;;;;14.55;6.55;;;20.10;99.90;;;;;;4979959;28;20049;-62
2022/08/23 06:55:49;;;;;;;12.40;7.13;;;20.10;99.90;;;;;;4981609;28;20034;-62
2022/08/23 06:58:15;;;;;;;16.10;6.88;;;20.10;99.90;;;;;;4987377;28;20390;-61
2022/08/23 07:00:40;;;;;;;13.07;6.50;;;20.20;99.90;;;;;;4988624;28;20058;-62
2022/08/23 07:03:06;;;;;;;14.98;6.45;;;20.20;99.90;;;;;;4987458;28;20023;-62
2022/08/23 07:05:32;;;;;;;12.93;6.78;;;20.30;99.90;;;;;;4986252;28;20033;-62
2022/08/23 07:07:58;;;;;;;15.25;6.72;;;20.40;99.90;;;;;;4985255;28;20117;-62
2022/08/23 07:10:23;;;;;;;17.63;7.22;;;20.50;99.90;;;;;;4986383;28;20430;-62
2022/08/23 07:12:49;;;;;;;74.53;47.92;;;20.60;99.90;;;;;;4985184;28;20034;-62
2022/08/23 07:15:15;;;;;;;12.65;7.28;;;20.60;99.90;;;;;;4986460;28;20119;-62
2022/08/23 07:17:40;;;;;;;16.00;6.88;;;20.70;99.90;;;;;;4986813;28;20154;-62
2022/08/23 07:20:06;;;;;;;17.27;6.72;;;20.80;99.90;;;;;;4985859;28;20117;-62
2022/08/23 07:22:32;;;;;;;21.73;6.90;;;21.00;99.90;;;;;;4981323;28;20018;-62
2022/08/23 07:24:57;;;;;;;17.85;6.55;;;21.10;99.90;;;;;;4984689;28;20030;-62
2022/08/23 07:27:23;;;;;;;15.52;7.07;;;21.10;99.90;;;;;;4985838;28;20023;-62
2022/08/23 07:29:49;;;;;;;16.80;6.68;;;21.40;99.90;;;;;;4988039;28;20488;-62
2022/08/23 07:32:14;;;;;;;16.63;6.68;;;21.20;99.90;;;;;;4986201;28;20029;-62
2022/08/23 07:34:40;;;;;;;20.00;6.22;;;21.30;99.90;;;;;;4988174;28;20033;-62
2022/08/23 07:37:06;;;;;;;16.33;7.07;;;21.50;99.90;;;;;;4986718;28;20094;-62
2022/08/23 07:39:31;;;;;;;12.10;5.93;;;21.50;99.90;;;;;;4987186;28;20022;-62
2022/08/23 07:42:02;;;;;;;16.33;6.65;;;21.60;99.90;;;;;;4986707;28;20561;-62
2022/08/23 07:44:28;;;;;;;13.98;6.78;;;21.80;99.90;;;;;;4986475;28;20386;-62
2022/08/23 07:46:55;;;;;;;13.68;6.68;;;21.90;99.90;;;;;;4985202;28;20647;-62
2022/08/23 07:49:22;;;;;;;21.88;7.15;;;21.90;99.90;;;;;;4984250;28;20394;-62
2022/08/23 07:51:49;;;;;;;16.92;6.40;;;22.00;99.90;;;;;;4984115;28;20026;-62
2022/08/23 07:54:17;;;;;;;17.38;6.72;;;22.00;99.90;;;;;;4985056;28;20080;-62
2022/08/23 07:56:42;;;;;;;17.88;7.18;;;22.10;99.90;;;;;;4985412;28;20470;-62
2022/08/23 07:59:10;;;;;;;14.30;7.18;;;22.10;99.90;;;;;;4986140;28;20285;-62
2022/08/23 08:01:36;;;;;;;14.82;6.70;;;;;;;;;;4986071;28;20049;-62
2022/08/23 08:04:05;;;;;;;16.73;7.78;;;22.00;99.90;;;;;;4988903;28;20046;-62
2022/08/23 08:06:44;;;;;;;14.52;6.90;;;22.40;99.90;;;;;;4983890;28;20033;-62
2022/08/23 08:09:11;;;;;;;14.50;6.80;;;22.60;99.90;;;;;;4982591;28;20030;-62
2022/08/23 08:11:39;;;;;;;12.63;6.35;;;22.60;99.90;;;;;;4983477;28;20109;-63
2022/08/23 08:14:07;;;;;;;19.65;6.85;;;22.40;99.90;;;;;;4989055;28;20027;-63
2022/08/23 08:16:39;;;;;;;18.08;6.50;;;22.20;99.90;;;;;;4983820;28;20393;-63
2022/08/23 08:19:07;;;;;;;12.35;6.32;;;22.70;99.90;;;;;;4980759;28;20065;-63
2022/08/23 08:21:34;;;;;;;15.68;6.07;;;22.70;99.90;;;;;;4986102;28;20565;-63
2022/08/23 08:24:00;;;;;;;17.42;6.50;;;22.80;99.90;;;;;;4980820;28;20425;-63
2022/08/23 08:26:26;;;;;;;13.80;6.20;;;22.90;99.90;;;;;;4983935;28;20073;-63
2022/08/23 08:28:54;;;;;;;14.02;5.75;;;22.90;99.90;;;;;;4979848;28;20120;-63
2022/08/23 08:31:20;;;;;;;18.48;6.35;;;22.90;99.90;;;;;;4981335;28;20026;-63
2022/08/23 08:33:46;;;;;;;13.50;5.43;;;23.10;99.90;;;;;;4988272;28;20034;-63
2022/08/23 08:36:34;;;;;;;15.13;5.65;;;23.20;99.90;;;;;;4987466;28;20034;-63
2022/08/23 08:39:01;;;;;;;12.20;5.07;;;23.20;99.90;;;;;;4986101;28;20030;-63
2022/08/23 08:42:03;;;;;;;15.65;5.70;;;23.30;99.90;;;;;;4984906;28;20482;-63
2022/08/23 08:44:44;;;;;;;63.53;53.75;;;23.40;99.90;;;;;;4991311;28;20042;-63
2022/08/23 08:47:20;;;;;;;25.05;15.35;;;23.40;99.90;;;;;;4999312;28;20030;-64
2022/08/23 08:50:07;;;;;;;11.32;5.10;;;;;;;;;;4985955;28;20423;-63
2022/08/23 08:52:38;;;;;;;19.73;5.25;;;23.50;99.90;;;;;;4984453;28;20395;-64
2022/08/23 08:55:11;;;;;;;8.35;4.35;;;23.60;99.90;;;;;;4984851;28;20028;-63
2022/08/23 08:57:39;;;;;;;;;;;23.70;99.90;;;;;;4987600;28;20028;-63
2022/08/23 09:00:13;;;;;;;12.98;5.57;;;23.70;99.90;;;;;;4984734;28;19977;-63
2022/08/23 09:02:40;;;;;;;9.20;4.53;;;23.80;99.90;;;;;;4986330;28;20118;-63
2022/08/23 09:05:16;;;;;;;14.48;5.60;;;23.80;99.90;;;;;;4984440;28;20015;-64
2022/08/23 09:07:55;;;;;;;18.08;4.90;;;23.90;99.90;;;;;;4983278;28;20275;-64
2022/08/23 09:10:50;;;;;;;17.88;5.00;;;24.00;99.90;;;;;;4985282;28;20513;-64
2022/08/23 09:13:34;;;;;;;16.73;5.38;;;24.10;99.90;;;;;;4982375;28;20440;-64
2022/08/23 09:15:59;;;;;;;;;;;24.10;99.90;;;;;;4981588;28;20047;-64
2022/08/23 09:18:25;;;;;;;12.20;4.95;;;24.20;99.90;;;;;;4984949;28;19936;-64
2022/08/23 09:20:53;;;;;;;13.02;4.57;;;24.20;99.90;;;;;;4987748;28;21265;-64
2022/08/23 09:23:24;;;;;;;11.13;5.15;;;24.40;99.90;;;;;;4983188;28;20024;-63
2022/08/23 09:25:55;;;;;;;14.40;4.60;;;24.50;99.90;;;;;;4983619;28;20030;-64
2022/08/23 09:28:21;;;;;;;11.60;4.25;;;24.60;99.90;;;;;;4978111;28;20034;-64
2022/08/23 09:30:54;;;;;;;11.48;4.57;;;24.60;99.90;;;;;;4976718;28;20213;-64
2022/08/23 09:33:23;;;;;;;12.98;4.60;;;24.70;99.90;;;;;;4981168;28;20657;-64
2022/08/23 09:36:16;;;;;;;12.43;5.10;;;24.60;99.90;;;;;;4985047;28;20077;-64
2022/08/23 09:38:51;;;;;;;14.10;4.63;;;24.70;99.90;;;;;;4985763;28;20027;-64
2022/08/23 09:41:26;;;;;;;14.73;4.57;;;24.80;99.90;;;;;;4983713;28;20062;-64
2022/08/23 09:43:54;;;;;;;12.85;4.72;;;24.80;99.90;;;;;;4988365;28;20106;-64
2022/08/23 09:46:29;;;;;;;12.27;4.22;;;24.90;99.90;;;;;;4984057;28;20121;-64
2022/08/23 09:48:57;;;;;;;11.55;3.78;;;25.00;99.90;;;;;;4984367;28;20022;-64
2022/08/23 09:51:40;;;;;;;11.75;4.00;;;25.10;99.90;;;;;;4980931;28;20043;-64
2022/08/23 09:54:20;;;;;;;12.60;3.80;;;25.10;99.90;;;;;;4986054;28;20338;-64
2022/08/23 09:56:56;;;;;;;11.48;7.07;;;25.00;99.90;;;;;;4983112;28;20022;-63
2022/08/23 09:59:24;;;;;;;22.15;18.58;;;25.20;99.90;;;;;;4987205;28;20494;-65
2022/08/23 10:01:52;;;;;;;12.05;3.92;;;25.30;99.90;;;;;;4993751;28;20022;-64
2022/08/23 10:04:44;;;;;;;11.65;3.90;;;25.40;99.90;;;;;;4981244;28;20713;-64
2022/08/23 10:07:33;;;;;;;7.97;3.65;;;25.40;99.90;;;;;;4983577;28;20029;-63
2022/08/23 10:10:27;;;;;;;9.98;3.80;;;25.40;99.90;;;;;;4981779;28;20061;-64
2022/08/23 10:12:54;;;;;;;14.60;3.88;;;25.50;99.90;;;;;;4986187;28;20385;-64
2022/08/23 10:15:24;;;;;;;16.17;4.28;;;25.50;99.90;;;;;;4988055;28;20029;-64
2022/08/23 10:18:09;;;;;;;9.82;3.50;;;25.60;99.90;;;;;;4998735;28;20057;-64
2022/08/23 10:20:53;;;;;;;8.52;3.47;;;25.60;99.90;;;;;;4981027;28;20148;-64
2022/08/23 10:23:44;;;;;;;8.55;3.47;;;25.70;99.90;;;;;;4982242;28;20030;-64
2022/08/23 10:26:34;;;;;;;14.40;4.20;;;25.80;99.90;;;;;;4984698;28;20062;-64
2022/08/23 10:32:22;;;;;;;16.70;3.58;;;25.80;99.90;;;;;;4986983;28;20421;-64
2022/08/23 10:35:13;;;;;;;7.18;3.30;;;25.80;99.90;;;;;;4988158;28;20044;-64
2022/08/23 10:38:00;;;;;;;14.77;4.10;;;25.80;99.90;;;;;;4990500;28;20048;-64
2022/08/23 10:40:54;;;;;;;13.82;3.90;;;26.00;99.90;;;;;;4989530;28;20069;-64
2022/08/23 10:43:37;;;;;;;14.23;3.67;;;26.00;99.90;;;;;;4990731;28;20034;-64
2022/08/23 10:46:06;;;;;;;12.32;3.90;;;26.00;99.90;;;;;;4984711;28;20039;-64
2022/08/23 10:48:40;;;;;;;9.45;3.70;;;25.90;99.90;;;;;;4990949;28;20030;-64
2022/08/23 10:51:12;;;;;;;11.38;3.38;;;26.00;99.90;;;;;;4983922;28;20029;-64
2022/08/23 10:53:48;;;;;;;10.45;3.88;;;25.90;99.90;;;;;;4983830;28;20030;-64
2022/08/23 10:56:18;;;;;;;11.32;4.72;;;26.00;99.90;;;;;;4979310;28;20033;-64
2022/08/23 10:58:59;;;;;;;8.90;5.25;;;26.20;99.90;;;;;;4983608;28;20027;-64
2022/08/23 11:01:38;;;;;;;7.85;3.08;;;26.30;99.90;;;;;;4982829;28;20041;-64
2022/08/23 11:04:29;;;;;;;8.95;3.45;;;26.50;99.90;;;;;;4985179;28;20033;-64
2022/08/23 11:07:00;;;;;;;8.10;3.28;;;26.60;99.90;;;;;;4985944;28;20026;-64
2022/08/23 11:09:25;;;;;;;8.88;3.65;;;26.60;99.90;;;;;;4990439;28;20018;-64
2022/08/23 11:12:14;;;;;;;12.68;3.63;;;26.60;99.90;;;;;;4986656;28;20046;-61
2022/08/23 11:14:46;;;;;;;8.15;2.97;;;26.70;99.90;;;;;;4985914;28;20405;-62
2022/08/23 11:17:42;;;;;;;8.45;3.53;;;26.90;99.90;;;;;;4986382;28;20026;-61
2022/08/23 11:20:11;;;;;;;11.68;3.90;;;26.80;99.90;;;;;;4984936;28;20048;-61
2022/08/23 11:23:01;;;;;;;13.63;3.90;;;26.80;99.90;;;;;;4987589;28;20022;-61
2022/08/23 11:25:26;;;;;;;12.50;3.70;;;26.80;99.90;;;;;;4985554;28;20495;-62
2022/08/23 11:28:23;;;;;;;13.90;3.53;;;26.80;99.90;;;;;;4986179;28;20113;-61
2022/08/23 11:30:56;;;;;;;8.70;3.60;;;26.80;99.90;;;;;;4986562;28;20026;-61
2022/08/23 11:33:23;;;;;;;;;;;27.00;99.90;;;;;;4987732;28;20538;-61
2022/08/23 11:36:17;;;;;;;7.25;3.53;;;27.00;99.90;;;;;;4989064;28;20032;-62
2022/08/23 11:38:42;;;;;;;8.07;3.30;;;27.10;99.90;;;;;;4987817;28;20049;-61
2022/08/23 11:41:54;;;;;;;7.13;3.15;;;27.00;99.90;;;;;;4987364;28;20026;-61
2022/08/23 11:44:31;;;;;;;10.45;3.63;;;27.10;99.90;;;;;;4983919;28;20117;-61
2022/08/23 11:47:00;;;;;;;7.57;3.13;;;27.10;99.90;;;;;;4986221;28;20032;-61
2022/08/23 11:49:29;;;;;;;8.48;2.95;;;27.00;99.90;;;;;;4985690;28;20391;-61
2022/08/23 11:52:13;;;;;;;9.68;3.67;;;27.00;99.90;;;;;;4983508;28;20039;-61
2022/08/23 11:55:03;;;;;;;9.98;3.60;;;27.10;99.90;;;;;;4983875;28;20465;-61
2022/08/23 11:57:49;;;;;;;12.90;3.03;;;27.00;99.90;;;;;;4983085;28;20375;-61
2022/08/23 12:00:43;;;;;;;7.30;2.92;;;27.40;99.90;;;;;;4983999;28;20105;-61
2022/08/23 12:03:32;;;;;;;15.18;9.10;;;27.40;99.90;;;;;;4985900;28;20058;-61
2022/08/23 12:06:31;;;;;;;33.90;20.05;;;27.40;99.90;;;;;;4986330;28;20481;-62
2022/08/23 12:09:00;;;;;;;8.73;3.25;;;27.50;99.90;;;;;;4985963;28;20514;-62
2022/08/23 12:11:52;;;;;;;4.82;2.72;;;27.40;99.90;;;;;;4987235;28;20766;-62
2022/08/23 12:14:32;;;;;;;28.50;17.83;;;27.40;99.90;;;;;;4984236;28;20647;-62
2022/08/23 12:17:02;;;;;;;52.00;35.08;;;27.40;99.90;;;;;;4985515;28;20479;-62
2022/08/23 12:19:36;;;;;;;7.68;2.90;;;27.50;99.90;;;;;;4987622;28;20342;-61
2022/08/23 12:22:20;;;;;;;9.88;3.33;;;27.50;99.90;;;;;;4987546;28;20087;-61
2022/08/23 12:24:53;;;;;;;13.40;3.00;;;27.50;99.90;;;;;;4984674;28;20088;-61
2022/08/23 12:27:27;;;;;;;9.82;3.00;;;27.40;99.90;;;;;;4986504;28;20291;-61
2022/08/23 12:30:04;;;;;;;7.28;2.70;;;27.60;99.90;;;;;;4984356;28;20485;-62
2022/08/23 12:33:01;;;;;;;15.13;8.88;;;27.50;99.90;;;;;;4982196;28;20657;-61
2022/08/23 12:35:45;;;;;;;5.63;2.33;;;27.70;99.90;;;;;;4986301;28;20497;-61
2022/08/23 12:38:13;;;;;;;11.93;4.60;;;27.80;99.90;;;;;;4990116;28;20704;-61
2022/08/23 12:40:43;;;;;;;9.10;5.05;;;27.60;99.90;;;;;;4991524;28;20023;-61
2022/08/23 12:43:16;;;;;;;12.45;2.90;;;27.60;99.90;;;;;;4983210;28;20029;-61
2022/08/23 12:45:49;;;;;;;6.00;2.90;;;27.60;99.90;;;;;;4985313;28;20469;-61
2022/08/23 12:48:19;;;;;;;9.30;2.53;;;27.70;99.90;;;;;;4978602;28;20026;-62
2022/08/23 12:50:55;;;;;;;10.20;4.35;;;27.70;99.90;;;;;;4979220;28;20030;-61
2022/08/23 12:53:34;;;;;;;7.38;3.33;;;27.60;99.90;;;;;;4983894;28;20033;-61
2022/08/23 12:56:13;;;;;;;7.25;2.83;;;27.50;99.90;;;;;;4980772;28;20739;-61
2022/08/23 12:58:44;;;;;;;8.90;2.67;;;27.70;99.90;;;;;;4983703;28;20429;-61
2022/08/23 13:01:23;;;;;;;4.85;2.45;;;27.60;99.90;;;;;;4982263;28;20210;-61
2022/08/23 13:04:01;;;;;;;5.43;2.33;;;27.70;99.90;;;;;;4980934;28;20031;-61
2022/08/23 13:06:32;;;;;;;12.65;6.22;;;27.60;99.90;;;;;;4981208;28;20023;-61
2022/08/23 13:09:00;;;;;;;7.75;2.53;;;27.60;99.90;;;;;;4984884;28;20565;-61
2022/08/23 13:11:32;;;;;;;5.55;2.78;;;27.60;99.90;;;;;;4986032;28;20022;-61
2022/08/23 13:13:59;;;;;;;6.85;2.97;;;27.50;99.90;;;;;;4986442;28;20037;-61